createdAt,value
2023-09-08T00:01:43.654Z,5.75
2023-09-08T00:04:12.625Z,5.57
2023-09-08T00:06:40.975Z,6.10
2023-09-08T00:09:09.234Z,5.67
2023-09-08T00:11:38.585Z,5.80
2023-09-08T00:14:07.108Z,5.90
2023-09-08T00:16:35.279Z,5.77
2023-09-08T00:19:03.692Z,5.00
2023-09-08T00:21:31.719Z,5.60
2023-09-08T00:23:59.763Z,5.20
2023-09-08T00:26:27.774Z,5.57
2023-09-08T00:28:57.236Z,5.53
2023-09-08T00:31:25.389Z,5.17
2023-09-08T00:33:53.512Z,5.40
2023-09-08T00:36:21.610Z,5.97
2023-09-08T00:38:49.631Z,5.93
2023-09-08T00:41:17.734Z,5.37
2023-09-08T00:43:45.785Z,5.50
2023-09-08T00:46:15.308Z,5.57
2023-09-08T00:48:44.036Z,5.63
2023-09-08T00:51:12.187Z,4.90
2023-09-08T00:53:40.293Z,5.60
2023-09-08T00:56:09.165Z,5.17
2023-09-08T00:58:37.687Z,5.53
2023-09-08T01:01:07.243Z,5.10
2023-09-08T01:03:36.921Z,5.73
2023-09-08T01:06:05.983Z,5.57
2023-09-08T01:08:34.415Z,5.33
2023-09-08T01:11:02.933Z,5.73
2023-09-08T01:13:31.143Z,5.60
2023-09-08T01:15:59.211Z,5.30
2023-09-08T01:18:27.367Z,5.40
2023-09-08T01:21:21.507Z,5.73
2023-09-08T01:24:03.534Z,5.40
2023-09-08T01:26:39.074Z,5.47
2023-09-08T01:29:09.052Z,5.17
2023-09-08T01:31:38.855Z,5.50
2023-09-08T01:34:08.390Z,5.63
2023-09-08T01:36:36.920Z,5.97
2023-09-08T01:39:05.423Z,6.33
2023-09-08T01:41:35.118Z,5.87
2023-09-08T01:44:09.048Z,5.40
2023-09-08T01:46:37.461Z,5.57
2023-09-08T01:49:05.627Z,5.57
2023-09-08T01:51:33.708Z,5.93
2023-09-08T01:54:01.751Z,5.40
2023-09-08T01:56:30.001Z,5.97
2023-09-08T01:59:00.438Z,5.37
2023-09-08T02:01:28.682Z,5.63
2023-09-08T02:03:56.707Z,5.80
2023-09-08T02:06:24.684Z,6.20
2023-09-08T02:08:52.712Z,5.40
2023-09-08T02:11:20.742Z,5.87
2023-09-08T02:13:48.771Z,5.67
2023-09-08T02:16:18.423Z,5.63
2023-09-08T02:18:47.370Z,5.80
2023-09-08T02:21:15.404Z,6.00
2023-09-08T02:23:43.482Z,5.70
2023-09-08T02:26:11.979Z,6.43
2023-09-08T02:28:40.125Z,5.50
2023-09-08T02:31:08.154Z,5.60
2023-09-08T02:33:37.578Z,5.90
2023-09-08T02:36:07.284Z,6.00
2023-09-08T02:38:35.894Z,5.67
2023-09-08T02:41:04.085Z,6.07
2023-09-08T02:43:32.057Z,6.33
2023-09-08T02:46:00.298Z,6.33
2023-09-08T02:48:28.411Z,6.50
2023-09-08T02:50:57.850Z,6.50
2023-09-08T02:53:29.988Z,6.57
2023-09-08T02:55:58.245Z,6.53
2023-09-08T02:58:26.810Z,6.23
2023-09-08T03:00:55.460Z,6.17
2023-09-08T03:03:24.009Z,6.40
2023-09-08T03:05:59.361Z,5.77
2023-09-08T03:08:27.421Z,5.40
2023-09-08T03:10:58.510Z,6.67
2023-09-08T03:13:27.793Z,6.60
2023-09-08T03:15:55.904Z,6.47
2023-09-08T03:18:24.262Z,6.10
2023-09-08T03:20:52.689Z,6.20
2023-09-08T03:23:22.403Z,5.40
2023-09-08T03:25:51.410Z,6.07
2023-09-08T03:28:19.402Z,5.60
2023-09-08T03:30:47.937Z,5.23
2023-09-08T03:33:16.156Z,6.10
2023-09-08T03:35:44.387Z,5.73
2023-09-08T03:38:12.464Z,6.67
2023-09-08T03:40:42.443Z,5.70
2023-09-08T03:43:10.449Z,5.50
2023-09-08T03:45:38.561Z,5.50
2023-09-08T03:48:07.298Z,5.70
2023-09-08T03:50:35.349Z,5.47
2023-09-08T03:53:03.611Z,5.50
2023-09-08T03:55:31.671Z,5.17
2023-09-08T03:58:01.389Z,5.40
2023-09-08T04:00:29.455Z,5.33
2023-09-08T04:02:58.101Z,5.00
2023-09-08T04:05:26.209Z,5.10
2023-09-08T04:07:55.464Z,5.63
2023-09-08T04:10:23.687Z,5.30
2023-09-08T04:12:51.694Z,5.17
2023-09-08T04:15:21.276Z,5.20
2023-09-08T04:17:49.310Z,5.50
2023-09-08T04:20:17.963Z,5.40
2023-09-08T04:22:46.156Z,5.30
2023-09-08T04:25:14.355Z,5.20
2023-09-08T04:27:42.710Z,4.97
2023-09-08T04:30:11.466Z,5.73
2023-09-08T04:32:41.834Z,5.27
2023-09-08T04:35:10.602Z,5.63
2023-09-08T04:37:40.039Z,5.57
2023-09-08T04:40:09.453Z,5.37
2023-09-08T04:42:37.572Z,4.90
2023-09-08T04:45:06.619Z,5.13
2023-09-08T04:47:34.686Z,5.67
2023-09-08T04:50:04.801Z,6.17
2023-09-08T04:52:32.854Z,5.63
2023-09-08T04:55:00.840Z,5.47
2023-09-08T04:57:30.128Z,5.77
2023-09-08T04:59:58.335Z,6.03
2023-09-08T05:02:26.529Z,6.27
2023-09-08T05:04:54.731Z,6.20
2023-09-08T05:07:24.178Z,6.20
2023-09-08T05:09:52.816Z,6.97
2023-09-08T05:12:22.186Z,7.00
2023-09-08T05:14:50.311Z,6.57
2023-09-08T05:17:18.308Z,6.60
2023-09-08T05:19:46.348Z,7.13
2023-09-08T05:22:14.387Z,7.53
2023-09-08T05:24:43.803Z,7.50
2023-09-08T05:27:11.818Z,7.13
2023-09-08T05:29:39.920Z,7.23
2023-09-08T05:32:08.071Z,7.23
2023-09-08T05:34:36.380Z,7.60
2023-09-08T05:37:04.679Z,8.63
2023-09-08T05:39:32.772Z,7.90
2023-09-08T05:42:02.270Z,7.37
2023-09-08T05:44:30.305Z,7.90
2023-09-08T05:46:58.355Z,8.00
2023-09-08T05:49:26.464Z,8.30
2023-09-08T05:51:54.670Z,8.20
2023-09-08T05:54:22.693Z,8.33
2023-09-08T05:56:50.861Z,9.43
2023-09-08T05:59:20.265Z,9.83
2023-09-08T06:01:48.400Z,9.67
2023-09-08T06:04:16.624Z,9.07
2023-09-08T06:06:44.738Z,10.47
2023-09-08T06:09:13.539Z,9.77
2023-09-08T06:11:41.490Z,10.73
2023-09-08T06:14:09.467Z,10.27
2023-09-08T06:16:39.059Z,11.20
2023-09-08T06:19:07.057Z,11.03
2023-09-08T06:21:35.228Z,12.00
2023-09-08T06:24:03.336Z,12.13
2023-09-08T06:26:31.465Z,14.07
2023-09-08T06:28:59.433Z,11.83
2023-09-08T06:31:27.500Z,12.90
2023-09-08T06:33:57.220Z,13.47
2023-09-08T06:36:25.472Z,13.33
2023-09-08T06:38:53.578Z,13.37
2023-09-08T06:41:21.666Z,12.00
2023-09-08T06:43:49.671Z,12.63
2023-09-08T06:46:18.260Z,11.90
2023-09-08T06:48:46.602Z,11.40
2023-09-08T06:51:16.113Z,11.57
2023-09-08T06:53:46.170Z,11.67
2023-09-08T06:56:14.233Z,11.60
2023-09-08T06:58:42.279Z,12.27
2023-09-08T07:01:10.461Z,12.03
2023-09-08T07:03:39.159Z,11.77
2023-09-08T07:06:07.497Z,11.70
2023-09-08T07:08:37.317Z,11.17
2023-09-08T07:11:05.734Z,12.10
2023-09-08T07:13:34.105Z,11.73
2023-09-08T07:16:02.323Z,11.00
2023-09-08T07:18:33.874Z,11.70
2023-09-08T07:21:02.359Z,11.77
2023-09-08T07:23:30.442Z,10.60
2023-09-08T07:25:59.760Z,11.82
2023-09-08T07:28:27.889Z,11.73
2023-09-08T07:30:56.127Z,11.23
2023-09-08T07:33:24.307Z,11.15
2023-09-08T07:35:52.335Z,10.52
2023-09-08T07:38:20.318Z,11.40
2023-09-08T07:40:48.280Z,11.40
2023-09-08T07:43:17.690Z,11.07
2023-09-08T07:45:45.882Z,10.32
2023-09-08T07:48:14.054Z,12.17
2023-09-08T07:50:42.239Z,10.35
2023-09-08T07:53:10.537Z,10.35
2023-09-08T07:55:38.545Z,9.52
2023-09-08T07:58:07.004Z,10.32
2023-09-08T08:00:36.449Z,9.35
2023-09-08T08:03:04.679Z,9.40
2023-09-08T08:05:32.803Z,10.00
2023-09-08T08:08:00.848Z,8.75
2023-09-08T08:10:29.273Z,9.00
2023-09-08T08:12:57.316Z,8.65
2023-09-08T08:15:36.327Z,8.85
2023-09-08T08:18:06.545Z,8.45
2023-09-08T08:20:35.946Z,7.85
2023-09-08T08:23:04.142Z,8.45
2023-09-08T08:25:32.577Z,7.93
2023-09-08T08:28:02.295Z,7.93
2023-09-08T08:30:30.619Z,7.13
2023-09-08T08:32:58.816Z,7.20
2023-09-08T08:35:28.322Z,6.75
2023-09-08T08:37:56.325Z,6.18
2023-09-08T08:40:28.038Z,5.80
2023-09-08T08:42:58.878Z,6.70
2023-09-08T08:45:31.500Z,6.32
2023-09-08T08:48:00.581Z,5.78
2023-09-08T08:50:30.552Z,5.70
2023-09-08T08:52:58.647Z,5.93
2023-09-08T08:55:28.021Z,5.38
2023-09-08T08:57:57.451Z,5.43
2023-09-08T09:00:25.628Z,5.60
2023-09-08T09:03:03.475Z,5.30
2023-09-08T09:05:45.818Z,4.88
2023-09-08T09:08:17.148Z,5.68
2023-09-08T09:10:45.272Z,5.43
2023-09-08T09:13:13.541Z,5.07
2023-09-08T09:15:42.092Z,4.75
2023-09-08T09:18:11.349Z,5.00
2023-09-08T09:20:42.424Z,4.82
2023-09-08T09:23:11.507Z,4.40
2023-09-08T09:25:39.869Z,4.03
2023-09-08T09:28:08.300Z,4.53
2023-09-08T09:30:50.659Z,4.38
2023-09-08T09:33:19.464Z,4.25
2023-09-08T09:35:50.842Z,4.10
2023-09-08T09:38:19.654Z,3.67
2023-09-08T09:40:48.157Z,3.78
2023-09-08T09:43:17.957Z,4.32
2023-09-08T09:45:46.561Z,4.05
2023-09-08T09:48:14.821Z,3.47
2023-09-08T09:50:44.384Z,4.00
2023-09-08T09:53:16.053Z,4.10
2023-09-08T09:55:46.049Z,4.13
2023-09-08T09:58:15.952Z,3.47
2023-09-08T10:00:49.224Z,3.53
2023-09-08T10:03:18.370Z,4.00
2023-09-08T10:05:48.412Z,3.90
2023-09-08T10:08:18.704Z,3.85
2023-09-08T10:10:49.152Z,3.85
2023-09-08T10:13:29.498Z,4.03
2023-09-08T10:16:00.441Z,3.42
2023-09-08T10:18:31.091Z,4.30
2023-09-08T10:21:03.580Z,3.80
2023-09-08T10:23:37.098Z,4.00
2023-09-08T10:26:11.301Z,3.97
2023-09-08T10:28:40.097Z,3.60
2023-09-08T10:31:11.314Z,3.50
2023-09-08T10:33:41.507Z,3.63
2023-09-08T10:36:11.604Z,3.60
2023-09-08T10:38:42.642Z,3.67
2023-09-08T10:41:35.129Z,3.20
2023-09-08T10:44:10.114Z,3.40
2023-09-08T10:46:39.539Z,3.60
2023-09-08T10:49:09.147Z,3.58
2023-09-08T10:51:39.006Z,3.53
2023-09-08T10:54:08.511Z,3.50
2023-09-08T10:56:57.462Z,3.03
2023-09-08T10:59:30.789Z,3.50
2023-09-08T11:01:58.951Z,3.47
2023-09-08T11:04:29.257Z,3.33
2023-09-08T11:06:58.922Z,3.45
2023-09-08T11:09:28.340Z,3.85
2023-09-08T11:11:57.843Z,3.53
2023-09-08T11:14:28.303Z,3.25
2023-09-08T11:16:56.360Z,3.47
2023-09-08T11:19:24.464Z,3.38
2023-09-08T11:21:52.500Z,3.25
2023-09-08T11:24:20.579Z,3.92
2023-09-08T11:26:51.552Z,3.45
2023-09-08T11:29:20.176Z,2.95
2023-09-08T11:31:54.288Z,3.28
2023-09-08T11:34:23.338Z,3.33
2023-09-08T11:36:51.454Z,3.53
2023-09-08T11:39:19.545Z,3.65
2023-09-08T11:41:49.097Z,3.85
2023-09-08T11:44:18.374Z,3.40
2023-09-08T11:46:47.120Z,2.97
2023-09-08T11:49:15.298Z,3.40
2023-09-08T11:51:43.522Z,3.30
2023-09-08T11:54:11.605Z,3.22
2023-09-08T11:56:40.299Z,3.42
2023-09-08T11:59:10.468Z,3.40
2023-09-08T12:01:38.776Z,3.42
2023-09-08T12:04:06.871Z,2.95
2023-09-08T12:06:34.922Z,3.40
2023-09-08T12:09:04.444Z,3.38
2023-09-08T12:11:35.959Z,3.78
2023-09-08T12:14:04.324Z,3.17
2023-09-08T12:16:33.794Z,3.17
2023-09-08T12:19:01.861Z,3.60
2023-09-08T12:21:30.049Z,3.20
2023-09-08T12:23:59.090Z,3.83
2023-09-08T12:26:27.599Z,3.47
2023-09-08T12:28:55.915Z,3.35
2023-09-08T12:31:25.231Z,3.60
2023-09-08T12:33:55.288Z,4.00
2023-09-08T12:36:23.362Z,3.63
2023-09-08T12:38:53.583Z,3.50
2023-09-08T12:41:22.055Z,3.42
2023-09-08T12:43:50.573Z,3.13
2023-09-08T12:46:20.189Z,3.25
2023-09-08T12:48:48.383Z,3.50
2023-09-08T12:51:17.788Z,3.63
2023-09-08T12:53:45.815Z,3.42
2023-09-08T12:56:13.938Z,3.25
2023-09-08T12:58:42.003Z,3.30
2023-09-08T13:01:10.273Z,3.20
2023-09-08T13:03:38.329Z,3.25
2023-09-08T13:06:06.845Z,3.40
2023-09-08T13:08:36.590Z,4.00
2023-09-08T13:11:05.014Z,3.85
2023-09-08T13:13:33.032Z,3.60
2023-09-08T13:16:01.127Z,3.70
2023-09-08T13:18:29.237Z,3.33
2023-09-08T13:20:57.266Z,3.78
2023-09-08T13:23:25.234Z,3.45
2023-09-08T13:25:54.621Z,3.20
2023-09-08T13:28:22.928Z,3.60
2023-09-08T13:30:51.047Z,3.47
2023-09-08T13:33:19.077Z,3.58
2023-09-08T13:35:47.182Z,3.50
2023-09-08T13:38:15.149Z,3.85
2023-09-08T13:40:43.376Z,3.88
2023-09-08T13:43:13.062Z,3.30
2023-09-08T13:45:43.905Z,3.67
2023-09-08T13:48:12.562Z,4.05
2023-09-08T13:50:44.170Z,3.30
2023-09-08T13:53:14.563Z,3.42
2023-09-08T13:55:44.049Z,3.35
2023-09-08T13:58:14.813Z,3.70
2023-09-08T14:00:45.539Z,3.28
2023-09-08T14:03:15.779Z,3.40
2023-09-08T14:08:28.265Z,3.47
2023-09-08T14:13:30.546Z,3.95
2023-09-08T14:16:00.099Z,3.85
2023-09-08T14:18:30.550Z,4.00
2023-09-08T14:20:58.854Z,4.00
2023-09-08T14:23:27.109Z,3.58
2023-09-08T14:25:55.271Z,3.78
2023-09-08T14:28:23.415Z,3.60
2023-09-08T14:30:53.159Z,3.65
2023-09-08T14:33:21.271Z,3.70
2023-09-08T14:35:52.656Z,3.50
2023-09-08T14:38:20.956Z,3.60
2023-09-08T14:40:57.823Z,3.58
2023-09-08T14:43:26.650Z,3.90
2023-09-08T14:45:58.350Z,3.83
2023-09-08T14:48:26.698Z,3.15
2023-09-08T14:50:54.832Z,3.38
2023-09-08T14:53:22.949Z,3.13
2023-09-08T14:55:51.233Z,3.88
2023-09-08T14:58:19.321Z,4.30
2023-09-08T15:00:47.730Z,3.75
2023-09-08T15:03:17.613Z,3.65
2023-09-08T15:05:45.763Z,4.03
2023-09-08T15:08:14.569Z,4.10
2023-09-08T15:10:42.755Z,3.63
2023-09-08T15:13:10.808Z,3.95
2023-09-08T15:15:38.772Z,3.97
2023-09-08T15:18:07.636Z,3.85
2023-09-08T15:20:37.216Z,3.90
2023-09-08T15:23:07.886Z,3.75
2023-09-08T15:25:36.661Z,3.95
2023-09-08T15:28:05.641Z,3.80
2023-09-08T15:30:33.721Z,3.60
2023-09-08T15:33:06.114Z,3.38
2023-09-08T15:35:34.133Z,3.58
2023-09-08T15:38:03.487Z,3.63
2023-09-08T15:40:32.027Z,3.65
2023-09-08T15:43:00.024Z,3.58
2023-09-08T15:45:28.050Z,4.20
2023-09-08T15:47:56.132Z,3.40
2023-09-08T15:50:24.205Z,3.65
2023-09-08T15:52:52.291Z,3.50
2023-09-08T15:55:21.803Z,3.70
2023-09-08T15:57:49.866Z,3.67
2023-09-08T16:00:18.692Z,3.95
2023-09-08T16:02:46.788Z,3.80
2023-09-08T16:05:16.027Z,4.28
2023-09-08T16:07:44.126Z,3.90
2023-09-08T16:10:12.150Z,3.70
2023-09-08T16:12:41.536Z,3.75
2023-09-08T16:15:10.075Z,3.75
2023-09-08T16:17:38.168Z,3.75
2023-09-08T16:20:07.142Z,3.92
2023-09-08T16:22:35.247Z,3.80
2023-09-08T16:25:03.603Z,3.83
2023-09-08T16:27:32.226Z,3.78
2023-09-08T16:30:01.641Z,3.92
2023-09-08T16:32:29.787Z,4.00
2023-09-08T16:34:58.007Z,4.47
2023-09-08T16:37:26.134Z,4.15
2023-09-08T16:39:54.177Z,4.15
2023-09-08T16:42:22.280Z,3.78
2023-09-08T16:44:50.271Z,3.60
2023-09-08T16:47:21.061Z,3.80
2023-09-08T16:49:49.077Z,3.90
2023-09-08T16:52:17.100Z,3.80
2023-09-08T16:54:46.513Z,3.90
2023-09-08T16:57:15.458Z,3.70
2023-09-08T16:59:43.516Z,4.43
2023-09-08T17:02:11.583Z,4.15
2023-09-08T17:04:44.948Z,4.50
2023-09-08T17:07:13.066Z,4.10
2023-09-08T17:09:41.186Z,5.10
2023-09-08T17:12:10.933Z,4.60
2023-09-08T17:14:38.990Z,4.35
2023-09-08T17:17:07.022Z,4.90
2023-09-08T17:19:35.154Z,5.18
2023-09-08T17:22:04.977Z,4.15
2023-09-08T17:24:33.178Z,4.57
2023-09-08T17:27:01.238Z,5.13
2023-09-08T17:29:30.666Z,4.60
2023-09-08T17:31:59.874Z,4.30
2023-09-08T17:34:28.072Z,4.82
2023-09-08T17:36:57.148Z,5.07
2023-09-08T17:39:26.514Z,6.20
2023-09-08T17:41:54.458Z,4.38
2023-09-08T17:44:22.527Z,5.60
2023-09-08T17:46:50.720Z,6.00
2023-09-08T17:49:18.827Z,5.10
2023-09-08T17:51:46.814Z,5.82
2023-09-08T17:54:14.877Z,4.85
2023-09-08T17:56:44.604Z,5.75
2023-09-08T17:59:12.570Z,5.70
2023-09-08T18:01:40.625Z,6.07
2023-09-08T18:04:08.819Z,5.50
2023-09-08T18:06:37.552Z,5.30
2023-09-08T18:09:05.660Z,6.75
2023-09-08T18:11:35.557Z,6.22
2023-09-08T18:14:06.066Z,5.95
2023-09-08T18:16:36.758Z,5.22
2023-09-08T18:19:05.080Z,6.28
2023-09-08T18:21:33.022Z,5.32
2023-09-08T18:24:01.056Z,5.78
2023-09-08T18:26:29.215Z,5.97
2023-09-08T18:28:57.362Z,5.63
2023-09-08T18:31:27.237Z,7.22
2023-09-08T18:33:55.951Z,7.57
2023-09-08T18:36:24.024Z,7.13
2023-09-08T18:38:52.080Z,6.60
2023-09-08T18:41:20.050Z,6.47
2023-09-08T18:43:48.103Z,6.93
2023-09-08T18:46:16.415Z,6.97
2023-09-08T18:48:46.483Z,5.75
2023-09-08T18:51:15.216Z,5.60
2023-09-08T18:53:43.365Z,6.47
2023-09-08T18:56:11.603Z,6.72
2023-09-08T18:58:39.615Z,6.20
2023-09-08T19:01:08.553Z,6.50
2023-09-08T19:03:38.384Z,7.82
2023-09-08T19:06:11.547Z,7.00
2023-09-08T19:08:39.720Z,6.57
2023-09-08T19:11:07.848Z,7.20
2023-09-08T19:13:36.302Z,7.05
2023-09-08T19:16:04.914Z,7.43
2023-09-08T19:18:32.969Z,8.10
2023-09-08T19:21:01.060Z,8.32
2023-09-08T19:23:31.062Z,8.02
2023-09-08T19:25:59.071Z,7.53
2023-09-08T19:28:27.164Z,7.82
2023-09-08T19:30:55.199Z,8.10
2023-09-08T19:33:23.306Z,7.90
2023-09-08T19:35:51.339Z,7.95
2023-09-08T19:38:19.768Z,7.70
2023-09-08T19:40:49.627Z,7.60
2023-09-08T19:43:17.814Z,7.53
2023-09-08T19:45:45.954Z,8.20
2023-09-08T19:48:14.121Z,8.48
2023-09-08T19:50:45.235Z,8.55
2023-09-08T19:53:13.271Z,8.18
2023-09-08T19:55:42.208Z,8.63
2023-09-08T19:58:11.606Z,8.90
2023-09-08T20:00:40.219Z,8.80
2023-09-08T20:03:08.384Z,8.68
2023-09-08T20:05:36.495Z,8.95
2023-09-08T20:08:04.672Z,9.05
2023-09-08T20:10:32.841Z,8.43
2023-09-08T20:13:02.863Z,8.27
2023-09-08T20:15:33.910Z,9.18
2023-09-08T20:18:03.656Z,8.70
2023-09-08T20:20:31.742Z,9.10
2023-09-08T20:22:59.874Z,9.20
2023-09-08T20:25:28.830Z,9.25
2023-09-08T20:27:56.823Z,8.80
2023-09-08T20:30:24.844Z,8.38
2023-09-08T20:32:54.263Z,9.50
2023-09-08T20:35:22.320Z,8.65
2023-09-08T20:37:50.274Z,9.30
2023-09-08T20:40:18.486Z,9.27
2023-09-08T20:42:46.722Z,9.43
2023-09-08T20:45:15.025Z,9.15
2023-09-08T20:47:44.016Z,9.27
2023-09-08T20:50:13.836Z,9.77
2023-09-08T20:52:41.862Z,11.27
2023-09-08T20:55:11.627Z,9.60
2023-09-08T20:57:39.730Z,9.35
2023-09-08T21:00:08.978Z,10.05
2023-09-08T21:02:37.110Z,9.75
2023-09-08T21:05:05.810Z,10.57
2023-09-08T21:07:35.391Z,10.15
2023-09-08T21:10:03.456Z,9.60
2023-09-08T21:12:31.725Z,9.13
2023-09-08T21:15:00.440Z,10.25
2023-09-08T21:17:28.524Z,9.50
2023-09-08T21:19:59.179Z,9.57
2023-09-08T21:22:27.335Z,9.20
2023-09-08T21:24:56.864Z,8.88
2023-09-08T21:27:24.868Z,9.35
2023-09-08T21:29:54.638Z,9.45
2023-09-08T21:32:24.285Z,9.43
2023-09-08T21:34:54.460Z,9.00
2023-09-08T21:37:23.025Z,9.38
2023-09-08T21:39:51.016Z,10.50
2023-09-08T21:42:20.435Z,10.25
2023-09-08T21:44:48.743Z,9.38
2023-09-08T21:47:16.959Z,8.68
2023-09-08T21:49:47.448Z,9.73
2023-09-08T21:52:21.498Z,8.73
2023-09-08T21:55:00.194Z,8.48
2023-09-08T21:57:29.622Z,10.70
2023-09-08T21:59:57.653Z,9.30
2023-09-08T22:02:25.925Z,8.52
2023-09-08T22:04:54.280Z,9.13
2023-09-08T22:07:22.508Z,9.40
2023-09-08T22:09:53.089Z,9.10
2023-09-08T22:12:21.194Z,10.02
2023-09-08T22:14:52.104Z,9.70
2023-09-08T22:17:20.205Z,9.82
2023-09-08T22:19:48.299Z,9.55
2023-09-08T22:22:16.328Z,9.63
2023-09-08T22:24:44.368Z,9.32
2023-09-08T22:27:12.348Z,8.70
2023-09-08T22:29:40.351Z,8.80
2023-09-08T22:32:09.708Z,9.48
2023-09-08T22:34:37.898Z,9.00
2023-09-08T22:37:06.201Z,9.45
2023-09-08T22:39:34.875Z,10.67
2023-09-08T22:42:02.849Z,9.35
2023-09-08T22:44:30.877Z,9.48
2023-09-08T22:46:58.928Z,9.93
2023-09-08T22:49:28.565Z,8.73
2023-09-08T22:51:56.554Z,8.55
2023-09-08T22:54:24.832Z,8.80
2023-09-08T22:56:52.857Z,9.07
2023-09-08T22:59:21.170Z,8.77
2023-09-08T23:01:49.271Z,7.95
2023-09-08T23:04:17.267Z,9.00
2023-09-08T23:06:46.632Z,8.80
2023-09-08T23:09:14.772Z,8.68
2023-09-08T23:11:42.909Z,8.45
2023-09-08T23:14:10.996Z,8.67
2023-09-08T23:16:39.151Z,9.00
2023-09-08T23:19:07.348Z,8.60
2023-09-08T23:21:35.311Z,8.18
2023-09-08T23:24:05.560Z,9.05
2023-09-08T23:26:33.644Z,8.87
2023-09-08T23:29:01.666Z,8.45
2023-09-08T23:31:29.743Z,8.77
2023-09-08T23:33:57.905Z,8.70
2023-09-08T23:36:26.220Z,7.93
2023-09-08T23:38:54.422Z,8.13
2023-09-08T23:41:23.909Z,8.52
2023-09-08T23:43:52.514Z,9.20
2023-09-08T23:46:20.801Z,8.95
2023-09-08T23:48:48.830Z,8.90
2023-09-08T23:51:16.895Z,9.00
2023-09-08T23:53:44.991Z,9.07
2023-09-08T23:56:13.024Z,8.80
2023-09-08T23:58:42.405Z,9.17
